sensor_id;sensor_type;location;lat;lon;timestamp;pressure;altitude;pressure_sealevel;temperature;humidity
71306;BME280;59097;46.858;18.632;2022-07-01T00:00:38;100005.19;;;22.79;74.35
71306;BME280;59097;46.858;18.632;2022-07-01T00:03:07;100005.19;;;22.79;74.45
71306;BME280;59097;46.858;18.632;2022-07-01T00:05:36;100008.22;;;22.68;75.67
71306;BME280;59097;46.858;18.632;2022-07-01T00:08:04;100003.09;;;22.71;74.86
71306;BME280;59097;46.858;18.632;2022-07-01T00:10:33;99997.16;;;22.59;76.25
71306;BME280;59097;46.858;18.632;2022-07-01T00:13:20;99999.63;;;22.55;76.07
71306;BME280;59097;46.858;18.632;2022-07-01T00:16:17;99995.84;;;22.46;77.20
71306;BME280;59097;46.858;18.632;2022-07-01T00:19:00;100009.94;;;22.38;76.81
71306;BME280;59097;46.858;18.632;2022-07-01T00:21:27;99997.03;;;22.30;77.36
71306;BME280;59097;46.858;18.632;2022-07-01T00:23:54;100001.31;;;22.31;76.72
71306;BME280;59097;46.858;18.632;2022-07-01T00:26:21;100004.91;;;22.12;78.04
71306;BME280;59097;46.858;18.632;2022-07-01T00:28:48;99995.47;;;22.09;78.00
71306;BME280;59097;46.858;18.632;2022-07-01T00:31:20;99989.28;;;22.73;75.97
71306;BME280;59097;46.858;18.632;2022-07-01T00:33:49;99989.28;;;22.73;75.97
71306;BME280;59097;46.858;18.632;2022-07-01T00:36:17;99981.94;;;22.14;77.23
71306;BME280;59097;46.858;18.632;2022-07-01T00:38:46;99975.19;;;22.17;77.72
71306;BME280;59097;46.858;18.632;2022-07-01T00:41:15;99980.06;;;22.15;77.83
71306;BME280;59097;46.858;18.632;2022-07-01T00:43:44;99987.88;;;22.11;77.69
71306;BME280;59097;46.858;18.632;2022-07-01T00:46:22;99989.78;;;22.06;78.18
71306;BME280;59097;46.858;18.632;2022-07-01T00:48:55;99985.75;;;22.03;79.09
71306;BME280;59097;46.858;18.632;2022-07-01T00:51:33;99985.22;;;21.96;79.19
71306;BME280;59097;46.858;18.632;2022-07-01T00:54:31;99984.16;;;21.92;79.49
71306;BME280;59097;46.858;18.632;2022-07-01T00:57:17;99988.78;;;21.86;79.91
71306;BME280;59097;46.858;18.632;2022-07-01T00:59:43;99993.06;;;21.77;80.67
71306;BME280;59097;46.858;18.632;2022-07-01T01:02:10;99989.00;;;21.75;80.52
71306;BME280;59097;46.858;18.632;2022-07-01T01:04:37;99986.59;;;21.68;81.33
71306;BME280;59097;46.858;18.632;2022-07-01T01:07:10;99975.09;;;22.37;78.59
71306;BME280;59097;46.858;18.632;2022-07-01T01:09:39;99975.09;;;22.37;78.59
71306;BME280;59097;46.858;18.632;2022-07-01T01:12:08;99977.13;;;21.81;80.10
71306;BME280;59097;46.858;18.632;2022-07-01T01:14:46;99975.78;;;21.83;79.90
71306;BME280;59097;46.858;18.632;2022-07-01T01:17:15;99978.78;;;21.92;80.84
71306;BME280;59097;46.858;18.632;2022-07-01T01:19:45;99972.56;;;21.86;80.31
71306;BME280;59097;46.858;18.632;2022-07-01T01:22:15;99970.13;;;21.90;80.76
71306;BME280;59097;46.858;18.632;2022-07-01T01:24:45;99978.22;;;21.90;81.01
71306;BME280;59097;46.858;18.632;2022-07-01T01:27:29;99979.31;;;21.94;80.78
71306;BME280;59097;46.858;18.632;2022-07-01T01:30:41;99975.78;;;21.93;80.47
71306;BME280;59097;46.858;18.632;2022-07-01T01:33:08;99967.97;;;21.82;80.74
71306;BME280;59097;46.858;18.632;2022-07-01T01:35:38;99979.84;;;21.86;81.20
71306;BME280;59097;46.858;18.632;2022-07-01T01:38:05;99976.63;;;21.89;80.85
71306;BME280;59097;46.858;18.632;2022-07-01T01:40:37;99972.06;;;22.48;77.91
71306;BME280;59097;46.858;18.632;2022-07-01T01:43:06;99972.06;;;22.48;77.91
71306;BME280;59097;46.858;18.632;2022-07-01T01:45:34;99969.56;;;21.83;80.50
71306;BME280;59097;46.858;18.632;2022-07-01T01:48:02;99977.41;;;21.79;80.46
71306;BME280;59097;46.858;18.632;2022-07-01T01:50:31;99973.38;;;21.77;80.61
71306;BME280;59097;46.858;18.632;2022-07-01T01:52:59;99976.34;;;21.70;81.67
71306;BME280;59097;46.858;18.632;2022-07-01T01:55:27;99966.59;;;21.74;81.10
71306;BME280;59097;46.858;18.632;2022-07-01T01:57:56;99966.59;;;21.74;81.29
71306;BME280;59097;46.858;18.632;2022-07-01T02:00:33;99973.34;;;21.72;81.74
71306;BME280;59097;46.858;18.632;2022-07-01T02:03:31;99972.03;;;21.54;82.58
71306;BME280;59097;46.858;18.632;2022-07-01T02:06:14;99969.09;;;21.46;82.62
71306;BME280;59097;46.858;18.632;2022-07-01T02:08:41;99978.25;;;21.45;82.15
71306;BME280;59097;46.858;18.632;2022-07-01T02:11:08;99978.78;;;21.31;82.95
71306;BME280;59097;46.858;18.632;2022-07-01T02:13:35;99979.88;;;21.15;84.60
71306;BME280;59097;46.858;18.632;2022-07-01T02:16:02;99987.41;;;21.18;83.61
71306;BME280;59097;46.858;18.632;2022-07-01T02:18:36;99973.09;;;21.73;81.11
71306;BME280;59097;46.858;18.632;2022-07-01T02:21:04;99973.09;;;21.73;81.11
71306;BME280;59097;46.858;18.632;2022-07-01T02:23:38;99966.34;;;21.05;83.29
71306;BME280;59097;46.858;18.632;2022-07-01T02:26:06;99982.81;;;21.14;83.01
71306;BME280;59097;46.858;18.632;2022-07-01T02:28:35;99986.63;;;21.13;83.09
71306;BME280;59097;46.858;18.632;2022-07-01T02:31:03;99983.13;;;21.17;82.83
71306;BME280;59097;46.858;18.632;2022-07-01T02:33:31;99985.53;;;21.19;82.74
71306;BME280;59097;46.858;18.632;2022-07-01T02:36:00;99984.47;;;21.20;83.18
71306;BME280;59097;46.858;18.632;2022-07-01T02:38:29;99987.16;;;21.15;83.21
71306;BME280;59097;46.858;18.632;2022-07-01T02:41:26;99992.28;;;21.16;82.95
71306;BME280;59097;46.858;18.632;2022-07-01T02:44:09;99993.91;;;21.12;83.19
71306;BME280;59097;46.858;18.632;2022-07-01T02:46:35;99995.78;;;21.17;82.79
71306;BME280;59097;46.858;18.632;2022-07-01T02:49:02;99995.50;;;21.18;82.83
71306;BME280;59097;46.858;18.632;2022-07-01T02:51:28;100002.53;;;21.14;83.12
71306;BME280;59097;46.858;18.632;2022-07-01T02:53:55;100002.81;;;21.18;82.66
71306;BME280;59097;46.858;18.632;2022-07-01T02:56:27;100013.56;;;21.99;79.66
71306;BME280;59097;46.858;18.632;2022-07-01T02:58:56;100013.56;;;21.99;79.66
71306;BME280;59097;46.858;18.632;2022-07-01T03:01:24;100018.44;;;21.36;81.98
71306;BME280;59097;46.858;18.632;2022-07-01T03:03:53;100020.59;;;21.34;82.62
71306;BME280;59097;46.858;18.632;2022-07-01T03:06:21;100032.22;;;21.40;83.26
71306;BME280;59097;46.858;18.632;2022-07-01T03:08:50;100033.03;;;21.40;82.45
71306;BME280;59097;46.858;18.632;2022-07-01T03:11:17;100039.78;;;21.48;81.98
71306;BME280;59097;46.858;18.632;2022-07-01T03:13:47;100039.78;;;21.53;82.09
71306;BME280;59097;46.858;18.632;2022-07-01T03:16:28;100046.25;;;21.57;81.70
71306;BME280;59097;46.858;18.632;2022-07-01T03:19:26;100044.63;;;21.66;81.81
71306;BME280;59097;46.858;18.632;2022-07-01T03:22:07;100039.78;;;21.68;82.03
71306;BME280;59097;46.858;18.632;2022-07-01T03:24:35;100040.31;;;21.65;81.88
71306;BME280;59097;46.858;18.632;2022-07-01T03:27:01;100046.81;;;21.64;82.53
71306;BME280;59097;46.858;18.632;2022-07-01T03:29:27;100038.44;;;21.65;81.63
71306;BME280;59097;46.858;18.632;2022-07-01T03:31:53;100032.75;;;21.62;82.15
71306;BME280;59097;46.858;18.632;2022-07-01T03:34:27;100044.56;;;22.26;79.84
71306;BME280;59097;46.858;18.632;2022-07-01T03:36:55;100044.56;;;22.26;79.84
71306;BME280;59097;46.858;18.632;2022-07-01T03:39:24;100058.66;;;21.78;81.19
71306;BME280;59097;46.858;18.632;2022-07-01T03:41:51;100058.94;;;21.81;80.99
71306;BME280;59097;46.858;18.632;2022-07-01T03:44:20;100057.03;;;21.72;81.57
71306;BME280;59097;46.858;18.632;2022-07-01T03:46:49;100062.50;;;21.87;80.88
71306;BME280;59097;46.858;18.632;2022-07-01T03:49:17;100068.13;;;21.96;80.45
71306;BME280;59097;46.858;18.632;2022-07-01T03:51:46;100065.19;;;21.97;80.54
71306;BME280;59097;46.858;18.632;2022-07-01T03:54:29;100075.16;;;22.07;80.31
71306;BME280;59097;46.858;18.632;2022-07-01T03:57:07;100075.66;;;22.19;79.99
71306;BME280;59097;46.858;18.632;2022-07-01T03:59:37;100083.47;;;22.35;79.74
71306;BME280;59097;46.858;18.632;2022-07-01T04:02:04;100093.16;;;22.46;78.84
71306;BME280;59097;46.858;18.632;2022-07-01T04:04:32;100081.78;;;22.49;77.69
71306;BME280;59097;46.858;18.632;2022-07-01T04:07:00;100090.47;;;22.41;78.01
71306;BME280;59097;46.858;18.632;2022-07-01T04:09:33;100104.69;;;23.41;74.18
71306;BME280;59097;46.858;18.632;2022-07-01T04:12:03;100104.69;;;23.41;74.18
71306;BME280;59097;46.858;18.632;2022-07-01T04:14:31;100104.50;;;22.43;77.89
71306;BME280;59097;46.858;18.632;2022-07-01T04:16:59;100108.78;;;22.60;77.08
71306;BME280;59097;46.858;18.632;2022-07-01T04:19:28;100110.44;;;22.55;77.43
71306;BME280;59097;46.858;18.632;2022-07-01T04:21:56;100110.16;;;22.67;76.80
71306;BME280;59097;46.858;18.632;2022-07-01T04:24:43;100089.06;;;22.64;76.44
71306;BME280;59097;46.858;18.632;2022-07-01T04:27:11;100093.12;;;22.67;76.25
71306;BME280;59097;46.858;18.632;2022-07-01T04:29:39;100100.25;;;23.06;75.58
71306;BME280;59097;46.858;18.632;2022-07-01T04:34:47;100091.00;;;23.61;73.82
71306;BME280;59097;46.858;18.632;2022-07-01T04:37:13;100094.47;;;26.26;63.11
71306;BME280;59097;46.858;18.632;2022-07-01T04:39:40;100085.22;;;27.67;57.72
71306;BME280;59097;46.858;18.632;2022-07-01T04:42:06;100094.13;;;28.64;54.80
71306;BME280;59097;46.858;18.632;2022-07-01T04:44:40;100093.94;;;32.11;46.15
71306;BME280;59097;46.858;18.632;2022-07-01T04:47:11;100093.94;;;32.11;46.15
71306;BME280;59097;46.858;18.632;2022-07-01T04:49:40;100091.00;;;31.96;46.03
71306;BME280;59097;46.858;18.632;2022-07-01T04:52:08;100094.31;;;30.39;49.17
71306;BME280;59097;46.858;18.632;2022-07-01T04:54:38;100097.63;;;34.66;40.02
71306;BME280;59097;46.858;18.632;2022-07-01T04:57:06;100091.37;;;34.23;40.64
71306;BME280;59097;46.858;18.632;2022-07-01T04:59:34;100097.06;;;32.94;43.74
71306;BME280;59097;46.858;18.632;2022-07-01T05:02:04;100092.03;;;30.79;48.24
71306;BME280;59097;46.858;18.632;2022-07-01T05:04:39;100081.56;;;31.10;48.42
71306;BME280;59097;46.858;18.632;2022-07-01T05:07:21;100090.31;;;34.74;40.39
71306;BME280;59097;46.858;18.632;2022-07-01T05:09:54;100096.75;;;32.03;46.20
71306;BME280;59097;46.858;18.632;2022-07-01T05:12:21;100100.56;;;35.81;37.85
71306;BME280;59097;46.858;18.632;2022-07-01T05:14:49;100095.56;;;35.14;39.22
71306;BME280;59097;46.858;18.632;2022-07-01T05:17:16;100102.66;;;33.34;41.81
71306;BME280;59097;46.858;18.632;2022-07-01T05:19:42;100103.00;;;32.48;43.48
71306;BME280;59097;46.858;18.632;2022-07-01T05:22:28;100111.97;;;38.12;33.16
71306;BME280;59097;46.858;18.632;2022-07-01T05:24:55;100098.03;;;36.15;37.13
71306;BME280;59097;46.858;18.632;2022-07-01T05:27:31;100105.97;;;39.81;30.80
71306;BME280;59097;46.858;18.632;2022-07-01T05:30:00;100105.97;;;39.81;30.80
71306;BME280;59097;46.858;18.632;2022-07-01T05:32:28;100109.38;;;41.79;26.70
71306;BME280;59097;46.858;18.632;2022-07-01T05:34:56;100108.84;;;37.21;33.62
71306;BME280;59097;46.858;18.632;2022-07-01T05:37:25;100113.81;;;41.55;27.27
71306;BME280;59097;46.858;18.632;2022-07-01T05:39:53;100108.53;;;35.86;36.68
71306;BME280;59097;46.858;18.632;2022-07-01T05:42:21;100109.66;;;40.76;28.57
71306;BME280;59097;46.858;18.632;2022-07-01T05:44:49;100118.19;;;37.69;32.29
71306;BME280;59097;46.858;18.632;2022-07-01T05:47:17;100115.66;;;38.71;31.98
71306;BME280;59097;46.858;18.632;2022-07-01T05:49:45;100121.53;;;41.12;27.53
71306;BME280;59097;46.858;18.632;2022-07-01T05:52:13;100119.16;;;40.19;28.92
71306;BME280;59097;46.858;18.632;2022-07-01T05:54:41;100127.31;;;41.64;26.74
71306;BME280;59097;46.858;18.632;2022-07-01T05:57:23;100123.81;;;37.76;32.57
71306;BME280;59097;46.858;18.632;2022-07-01T05:59:49;100103.94;;;38.91;30.36
71306;BME280;59097;46.858;18.632;2022-07-01T06:02:19;100122.22;;;34.44;39.66
71306;BME280;59097;46.858;18.632;2022-07-01T06:05:42;100124.53;;;33.71;41.46
71306;BME280;59097;46.858;18.632;2022-07-01T06:08:11;100126.03;;;33.04;43.06
71306;BME280;59097;46.858;18.632;2022-07-01T06:10:39;100127.00;;;32.27;44.90
71306;BME280;59097;46.858;18.632;2022-07-01T06:13:07;100123.91;;;32.28;45.21
71306;BME280;59097;46.858;18.632;2022-07-01T06:15:35;100115.03;;;31.16;48.22
71306;BME280;59097;46.858;18.632;2022-07-01T06:18:04;100118.41;;;31.22;48.87
71306;BME280;59097;46.858;18.632;2022-07-01T06:20:31;100122.44;;;31.16;48.72
71306;BME280;59097;46.858;18.632;2022-07-01T06:23:00;100118.56;;;30.58;49.41
71306;BME280;59097;46.858;18.632;2022-07-01T06:25:28;100118.91;;;31.15;47.25
71306;BME280;59097;46.858;18.632;2022-07-01T06:27:56;100128.69;;;31.25;46.92
71306;BME280;59097;46.858;18.632;2022-07-01T06:30:24;100125.37;;;31.10;47.46
71306;BME280;59097;46.858;18.632;2022-07-01T06:32:52;100126.78;;;30.87;48.55
71306;BME280;59097;46.858;18.632;2022-07-01T06:35:34;100129.50;;;30.96;48.42
71306;BME280;59097;46.858;18.632;2022-07-01T06:38:31;100128.31;;;30.76;48.57
71306;BME280;59097;46.858;18.632;2022-07-01T06:41:13;100119.28;;;31.05;47.84
71306;BME280;59097;46.858;18.632;2022-07-01T06:44:15;100121.31;;;30.87;48.38
71306;BME280;59097;46.858;18.632;2022-07-01T06:46:43;100122.72;;;31.02;47.87
71306;BME280;59097;46.858;18.632;2022-07-01T06:49:09;100126.62;;;30.92;48.07
71306;BME280;59097;46.858;18.632;2022-07-01T06:51:36;100127.28;;;31.19;47.62
71306;BME280;59097;46.858;18.632;2022-07-01T06:54:03;100128.94;;;31.11;47.33
71306;BME280;59097;46.858;18.632;2022-07-01T06:56:29;100133.72;;;30.85;47.21
71306;BME280;59097;46.858;18.632;2022-07-01T06:59:02;100139.50;;;31.50;46.59
71306;BME280;59097;46.858;18.632;2022-07-01T07:01:31;100139.50;;;31.50;46.59
71306;BME280;59097;46.858;18.632;2022-07-01T07:03:59;100131.44;;;31.25;47.05
71306;BME280;59097;46.858;18.632;2022-07-01T07:06:27;100128.00;;;31.28;48.91
71306;BME280;59097;46.858;18.632;2022-07-01T07:08:56;100133.16;;;31.29;47.57
71306;BME280;59097;46.858;18.632;2022-07-01T07:11:24;100121.44;;;31.49;47.97
71306;BME280;59097;46.858;18.632;2022-07-01T07:13:52;100118.31;;;31.30;47.08
71306;BME280;59097;46.858;18.632;2022-07-01T07:16:21;100125.91;;;31.54;46.31
71306;BME280;59097;46.858;18.632;2022-07-01T07:18:49;100124.19;;;31.82;46.42
71306;BME280;59097;46.858;18.632;2022-07-01T07:21:18;100118.28;;;31.92;45.54
71306;BME280;59097;46.858;18.632;2022-07-01T07:24:30;100112.81;;;31.92;45.75
71306;BME280;59097;46.858;18.632;2022-07-01T07:26:59;100111.44;;;31.86;45.65
71306;BME280;59097;46.858;18.632;2022-07-01T07:29:25;100100.25;;;31.91;46.14
71306;BME280;59097;46.858;18.632;2022-07-01T07:32:06;100107.09;;;31.64;45.75
71306;BME280;59097;46.858;18.632;2022-07-01T07:34:49;100109.06;;;32.29;44.72
71306;BME280;59097;46.858;18.632;2022-07-01T07:37:15;100111.97;;;32.12;44.25
71306;BME280;59097;46.858;18.632;2022-07-01T07:39:42;100118.78;;;32.51;44.23
71306;BME280;59097;46.858;18.632;2022-07-01T07:42:09;100120.72;;;32.39;43.77
71306;BME280;59097;46.858;18.632;2022-07-01T07:44:35;100110.56;;;32.39;43.59
71306;BME280;59097;46.858;18.632;2022-07-01T07:47:02;100101.06;;;32.49;43.31
71306;BME280;59097;46.858;18.632;2022-07-01T07:49:29;100123.38;;;32.47;43.26
71306;BME280;59097;46.858;18.632;2022-07-01T07:51:55;100119.63;;;32.52;43.24
71306;BME280;59097;46.858;18.632;2022-07-01T07:54:28;100123.06;;;33.09;42.23
71306;BME280;59097;46.858;18.632;2022-07-01T07:56:56;100123.06;;;33.09;42.23
71306;BME280;59097;46.858;18.632;2022-07-01T07:59:24;100126.50;;;32.58;42.96
71306;BME280;59097;46.858;18.632;2022-07-01T08:01:52;100132.13;;;32.85;43.32
71306;BME280;59097;46.858;18.632;2022-07-01T08:04:21;100131.06;;;33.02;42.83
71306;BME280;59097;46.858;18.632;2022-07-01T08:06:49;100141.03;;;33.07;42.30
71306;BME280;59097;46.858;18.632;2022-07-01T08:09:17;100136.22;;;32.91;41.97
71306;BME280;59097;46.858;18.632;2022-07-01T08:11:46;100092.16;;;32.76;41.98
71306;BME280;59097;46.858;18.632;2022-07-01T08:14:14;100144.03;;;32.77;42.54
71306;BME280;59097;46.858;18.632;2022-07-01T08:16:49;100144.97;;;33.06;42.13
71306;BME280;59097;46.858;18.632;2022-07-01T08:19:18;100150.56;;;34.01;40.58
71306;BME280;59097;46.858;18.632;2022-07-01T08:21:46;100148.63;;;35.80;35.92
71306;BME280;59097;46.858;18.632;2022-07-01T08:24:12;100154.25;;;38.09;32.35
71306;BME280;59097;46.858;18.632;2022-07-01T08:26:55;100149.81;;;39.40;30.22
71306;BME280;59097;46.858;18.632;2022-07-01T08:29:51;100139.84;;;40.92;28.10
71306;BME280;59097;46.858;18.632;2022-07-01T08:32:45;100149.69;;;40.05;29.72
71306;BME280;59097;46.858;18.632;2022-07-01T08:35:14;100149.69;;;40.05;29.72
71306;BME280;59097;46.858;18.632;2022-07-01T08:37:42;100144.41;;;39.65;30.32
71306;BME280;59097;46.858;18.632;2022-07-01T08:40:10;100144.63;;;40.56;28.17
71306;BME280;59097;46.858;18.632;2022-07-01T08:42:39;100144.41;;;39.03;29.27
71306;BME280;59097;46.858;18.632;2022-07-01T08:45:07;100139.91;;;39.39;29.83
71306;BME280;59097;46.858;18.632;2022-07-01T08:47:49;100135.47;;;41.02;26.21
71306;BME280;59097;46.858;18.632;2022-07-01T08:50:18;100134.47;;;38.95;29.38
71306;BME280;59097;46.858;18.632;2022-07-01T08:52:50;100137.84;;;40.29;27.80
71306;BME280;59097;46.858;18.632;2022-07-01T08:55:20;100139.03;;;40.21;27.58
71306;BME280;59097;46.858;18.632;2022-07-01T08:57:49;100137.31;;;39.06;29.88
71306;BME280;59097;46.858;18.632;2022-07-01T09:00:17;100132.34;;;37.97;31.25
71306;BME280;59097;46.858;18.632;2022-07-01T09:02:58;100119.28;;;35.72;35.64
71306;BME280;59097;46.858;18.632;2022-07-01T09:05:49;100120.69;;;39.13;30.28
71306;BME280;59097;46.858;18.632;2022-07-01T09:08:27;100117.56;;;40.07;28.44
71306;BME280;59097;46.858;18.632;2022-07-01T09:11:30;100115.53;;;39.11;29.61
71306;BME280;59097;46.858;18.632;2022-07-01T09:14:09;100124.19;;;39.75;28.43
71306;BME280;59097;46.858;18.632;2022-07-01T09:16:44;100122.78;;;40.51;27.61
71306;BME280;59097;46.858;18.632;2022-07-01T09:19:13;100117.72;;;39.42;29.49
71306;BME280;59097;46.858;18.632;2022-07-01T09:21:59;100127.53;;;40.90;27.22
71306;BME280;59097;46.858;18.632;2022-07-01T09:24:30;100124.34;;;40.95;27.08
71306;BME280;59097;46.858;18.632;2022-07-01T09:27:05;100122.53;;;39.59;28.90
71306;BME280;59097;46.858;18.632;2022-07-01T09:29:43;100122.13;;;39.57;29.26
71306;BME280;59097;46.858;18.632;2022-07-01T09:32:11;100120.69;;;40.02;28.33
71306;BME280;59097;46.858;18.632;2022-07-01T09:34:46;100116.44;;;39.26;29.53
71306;BME280;59097;46.858;18.632;2022-07-01T09:37:18;100116.44;;;39.26;29.53
71306;BME280;59097;46.858;18.632;2022-07-01T09:39:52;100118.72;;;37.48;32.16
71306;BME280;59097;46.858;18.632;2022-07-01T09:42:22;100114.28;;;35.78;35.15
71306;BME280;59097;46.858;18.632;2022-07-01T09:45:04;100112.72;;;35.42;36.55
71306;BME280;59097;46.858;18.632;2022-07-01T09:47:40;100111.53;;;34.89;37.68
71306;BME280;59097;46.858;18.632;2022-07-01T09:50:09;100116.25;;;34.57;38.19
71306;BME280;59097;46.858;18.632;2022-07-01T09:52:37;100114.91;;;34.20;38.93
71306;BME280;59097;46.858;18.632;2022-07-01T09:55:08;100110.16;;;33.37;40.31
71306;BME280;59097;46.858;18.632;2022-07-01T09:57:36;100109.00;;;32.62;42.14
71306;BME280;59097;46.858;18.632;2022-07-01T10:00:05;100111.94;;;33.18;40.96
71306;BME280;59097;46.858;18.632;2022-07-01T10:02:35;100111.41;;;33.40;40.74
71306;BME280;59097;46.858;18.632;2022-07-01T10:05:13;100109.38;;;33.77;40.12
71306;BME280;59097;46.858;18.632;2022-07-01T10:10:37;100107.91;;;34.54;37.51
71306;BME280;59097;46.858;18.632;2022-07-01T10:13:07;100108.25;;;34.21;37.54
71306;BME280;59097;46.858;18.632;2022-07-01T10:15:35;100109.81;;;34.06;37.93
71306;BME280;59097;46.858;18.632;2022-07-01T10:18:02;100112.00;;;34.29;37.81
71306;BME280;59097;46.858;18.632;2022-07-01T10:20:59;100107.28;;;34.29;37.37
71306;BME280;59097;46.858;18.632;2022-07-01T10:23:44;100106.75;;;33.68;38.50
71306;BME280;59097;46.858;18.632;2022-07-01T10:26:14;100106.75;;;33.68;38.50
71306;BME280;59097;46.858;18.632;2022-07-01T10:28:48;100107.63;;;32.80;39.89
71306;BME280;59097;46.858;18.632;2022-07-01T10:31:19;100105.06;;;33.00;38.96
71306;BME280;59097;46.858;18.632;2022-07-01T10:34:08;100113.03;;;34.24;37.70
71306;BME280;59097;46.858;18.632;2022-07-01T10:36:38;100113.81;;;35.18;35.79
71306;BME280;59097;46.858;18.632;2022-07-01T10:39:09;100097.47;;;35.29;34.89
71306;BME280;59097;46.858;18.632;2022-07-01T10:45:09;100100.81;;;34.68;35.62
71306;BME280;59097;46.858;18.632;2022-07-01T10:47:38;100085.94;;;34.73;34.88
71306;BME280;59097;46.858;18.632;2022-07-01T10:50:09;100097.56;;;35.71;34.80
71306;BME280;59097;46.858;18.632;2022-07-01T10:53:00;100093.00;;;36.20;33.93
71306;BME280;59097;46.858;18.632;2022-07-01T10:55:40;100096.84;;;35.74;33.92
71306;BME280;59097;46.858;18.632;2022-07-01T10:58:07;100090.56;;;36.15;34.82
71306;BME280;59097;46.858;18.632;2022-07-01T11:00:35;100065.25;;;35.71;34.33
71306;BME280;59097;46.858;18.632;2022-07-01T11:03:10;100088.06;;;35.87;33.89
71306;BME280;59097;46.858;18.632;2022-07-01T11:06:07;100087.16;;;35.83;34.30
71306;BME280;59097;46.858;18.632;2022-07-01T11:08:34;100077.97;;;35.98;33.39
71306;BME280;59097;46.858;18.632;2022-07-01T11:11:01;100078.31;;;36.39;33.67
71306;BME280;59097;46.858;18.632;2022-07-01T11:13:37;100070.87;;;36.66;33.03
71306;BME280;59097;46.858;18.632;2022-07-01T11:16:06;100070.87;;;36.66;33.03
71306;BME280;59097;46.858;18.632;2022-07-01T11:18:35;100055.62;;;36.04;33.49
71306;BME280;59097;46.858;18.632;2022-07-01T11:21:08;100062.34;;;36.03;33.14
71306;BME280;59097;46.858;18.632;2022-07-01T11:23:37;100071.16;;;36.12;33.62
71306;BME280;59097;46.858;18.632;2022-07-01T11:26:20;100065.72;;;35.54;34.26
71306;BME280;59097;46.858;18.632;2022-07-01T11:28:49;100064.97;;;35.99;33.44
71306;BME280;59097;46.858;18.632;2022-07-01T11:31:27;100056.03;;;36.06;33.31
71306;BME280;59097;46.858;18.632;2022-07-01T11:33:55;100055.94;;;36.21;33.52
71306;BME280;59097;46.858;18.632;2022-07-01T11:36:33;100047.47;;;36.33;33.18
71306;BME280;59097;46.858;18.632;2022-07-01T11:39:48;100049.78;;;36.31;32.83
71306;BME280;59097;46.858;18.632;2022-07-01T11:42:15;100035.44;;;36.22;33.02
71306;BME280;59097;46.858;18.632;2022-07-01T11:44:43;100046.72;;;36.59;32.71
71306;BME280;59097;46.858;18.632;2022-07-01T11:47:11;100033.06;;;36.47;33.04
71306;BME280;59097;46.858;18.632;2022-07-01T11:49:46;100029.78;;;36.90;33.33
71306;BME280;59097;46.858;18.632;2022-07-01T11:52:13;100010.34;;;36.57;32.85
71306;BME280;59097;46.858;18.632;2022-07-01T11:54:50;100021.31;;;36.80;32.75
71306;BME280;59097;46.858;18.632;2022-07-01T11:57:24;100021.31;;;36.80;32.75
71306;BME280;59097;46.858;18.632;2022-07-01T11:59:55;100026.28;;;36.41;33.96
71306;BME280;59097;46.858;18.632;2022-07-01T12:02:24;100027.09;;;36.68;33.01
71306;BME280;59097;46.858;18.632;2022-07-01T12:04:52;100025.06;;;36.65;32.83
71306;BME280;59097;46.858;18.632;2022-07-01T12:07:21;100027.88;;;36.19;32.65
71306;BME280;59097;46.858;18.632;2022-07-01T12:09:49;100005.12;;;36.52;31.70
71306;BME280;59097;46.858;18.632;2022-07-01T12:12:20;100016.44;;;36.70;32.63
71306;BME280;59097;46.858;18.632;2022-07-01T12:14:53;100011.78;;;36.74;33.05
71306;BME280;59097;46.858;18.632;2022-07-01T12:17:36;100008.16;;;36.43;32.78
71306;BME280;59097;46.858;18.632;2022-07-01T12:20:33;100010.00;;;36.58;32.46
71306;BME280;59097;46.858;18.632;2022-07-01T12:23:15;99995.72;;;35.24;33.77
71306;BME280;59097;46.858;18.632;2022-07-01T12:26:13;99991.81;;;36.09;33.05
71306;BME280;59097;46.858;18.632;2022-07-01T12:28:39;99989.97;;;36.42;33.54
71306;BME280;59097;46.858;18.632;2022-07-01T12:31:09;99989.81;;;36.32;33.03
71306;BME280;59097;46.858;18.632;2022-07-01T12:33:47;99989.44;;;36.33;32.96
71306;BME280;59097;46.858;18.632;2022-07-01T12:36:20;99987.41;;;36.83;32.41
71306;BME280;59097;46.858;18.632;2022-07-01T12:39:00;99987.41;;;36.83;32.41
71306;BME280;59097;46.858;18.632;2022-07-01T12:41:35;99984.69;;;36.08;32.85
71306;BME280;59097;46.858;18.632;2022-07-01T12:44:23;99981.47;;;35.60;33.96
71306;BME280;59097;46.858;18.632;2022-07-01T12:46:52;99964.31;;;35.09;33.14
71306;BME280;59097;46.858;18.632;2022-07-01T12:49:22;99978.75;;;35.22;33.58
71306;BME280;59097;46.858;18.632;2022-07-01T12:51:51;99971.03;;;34.93;33.84
71306;BME280;59097;46.858;18.632;2022-07-01T12:54:34;99962.59;;;34.86;34.14
71306;BME280;59097;46.858;18.632;2022-07-01T12:57:03;99959.53;;;35.06;34.32
71306;BME280;59097;46.858;18.632;2022-07-01T12:59:44;99953.47;;;35.01;34.26
71306;BME280;59097;46.858;18.632;2022-07-01T13:02:10;99951.12;;;35.18;34.30
71306;BME280;59097;46.858;18.632;2022-07-01T13:04:37;99953.50;;;35.20;34.99
71306;BME280;59097;46.858;18.632;2022-07-01T13:07:03;99956.97;;;35.17;34.52
71306;BME280;59097;46.858;18.632;2022-07-01T13:09:29;99948.41;;;35.22;33.98
71306;BME280;59097;46.858;18.632;2022-07-01T13:12:02;99954.81;;;36.13;33.86
71306;BME280;59097;46.858;18.632;2022-07-01T13:14:31;99954.81;;;36.13;33.86
71306;BME280;59097;46.858;18.632;2022-07-01T13:16:59;99947.56;;;35.60;34.68
71306;BME280;59097;46.858;18.632;2022-07-01T13:19:27;99942.84;;;35.18;35.67